Check out our new PWSWeather beta!
PWSweather.com
Personal Weather Stations
Station Observations
URBANDALE
Westwind Acres And Meredith Hills, Urbandale, IA 50322

Westwind Acres And Meredith HillsUrbandale, IA 50322

Lat: 41.643, Lon: -93.709

Elevation: 928

Station Type:

http://urbandaleweather.com

High Low Average
Temperature 21.2°F-6.0°C -4.9°F-20.5°C 9.2°F-12.7°C
Dew Point 9.5°F-12.5°C -9.0°F-22.8°C -0.5°F-18.1°C
Winds 6.0 mph 9.7 kmh Calm Calm 2.0 mph SSW3.2 kmh SSW
Wind Gusts 16.1 mph25.9 kmh -- 6.0 mph9.7 kmh
Humidity 83% 44% 66%
Pressure 30.48 in1032.2 mb 30.07 in1018.3 mb -
Precipitation 0.00 in0.0 mm - -
Hour Temp Dew Point Humidity Winds Wind Gusts Pressure Precip Precip Rate Daily Precip Total
12:04 AM -3.6°F-19.8°C -9.0°F-22.8°C 77% Calm Calm -- 30.48 in1032.2 mb 0.00 in0.0 mm 0.00 in0.0 mm 0.00 in0.0 mm
12:09 AM -3.8°F-19.9°C -8.9°F-22.7°C 78% Calm Calm -- 30.48 in1032.2 mb 0.00 in0.0 mm 0.00 in0.0 mm 0.00 in0.0 mm
12:14 AM -3.8°F-19.9°C -8.9°F-22.7°C 78% Calm Calm -- 30.48 in1032.2 mb 0.00 in0.0 mm 0.00 in0.0 mm 0.00 in0.0 mm
12:19 AM -4.0°F-20.0°C -9.0°F-22.8°C 78% Calm Calm -- 30.48 in1032.2 mb 0.00 in0.0 mm 0.00 in0.0 mm 0.00 in0.0 mm
12:24 AM -4.0°F-20.0°C -8.9°F-22.7°C 79% Calm Calm -- 30.48 in1032.2 mb 0.00 in0.0 mm 0.00 in0.0 mm 0.00 in0.0 mm
12:29 AM -4.0°F-20.0°C -8.9°F-22.7°C 79% Calm Calm -- 30.48 in1032.2 mb 0.00 in0.0 mm 0.00 in0.0 mm 0.00 in0.0 mm
12:34 AM -3.8°F-19.9°C -8.7°F-22.6°C 79% Calm Calm -- 30.48 in1032.2 mb 0.00 in0.0 mm 0.00 in0.0 mm 0.00 in0.0 mm
12:39 AM -3.8°F-19.9°C -8.7°F-22.6°C 79% Calm Calm -- 30.48 in1032.2 mb 0.00 in0.0 mm 0.00 in0.0 mm 0.00 in0.0 mm
12:44 AM -3.8°F-19.9°C -8.5°F-22.5°C 80% Calm Calm -- 30.48 in1032.2 mb 0.00 in0.0 mm 0.00 in0.0 mm 0.00 in0.0 mm
12:49 AM -3.8°F-19.9°C -8.7°F-22.6°C 79% Calm Calm -- 30.48 in1032.2 mb 0.00 in0.0 mm 0.00 in0.0 mm 0.00 in0.0 mm
12:54 AM -3.8°F-19.9°C -8.7°F-22.6°C 79% Calm Calm -- 30.47 in1031.8 mb 0.00 in0.0 mm 0.00 in0.0 mm 0.00 in0.0 mm
12:59 AM -3.8°F-19.9°C -8.5°F-22.5°C 80% Calm Calm -- 30.47 in1031.8 mb 0.00 in0.0 mm 0.00 in0.0 mm 0.00 in0.0 mm
01:04 AM -3.8°F-19.9°C -8.5°F-22.5°C 80% Calm Calm -- 30.47 in1031.8 mb 0.00 in0.0 mm 0.00 in0.0 mm 0.00 in0.0 mm
01:09 AM -4.0°F-20.0°C -8.7°F-22.6°C 80% Calm Calm -- 30.47 in1031.8 mb 0.00 in0.0 mm 0.00 in0.0 mm 0.00 in0.0 mm
01:14 AM -3.8°F-19.9°C -8.5°F-22.5°C 80% Calm Calm -- 30.47 in1031.8 mb 0.00 in0.0 mm 0.00 in0.0 mm 0.00 in0.0 mm
01:19 AM -3.8°F-19.9°C -8.5°F-22.5°C 80% Calm Calm -- 30.48 in1032.2 mb 0.00 in0.0 mm 0.00 in0.0 mm 0.00 in0.0 mm
01:24 AM -3.8°F-19.9°C -8.5°F-22.5°C 80% Calm Calm -- 30.48 in1032.2 mb 0.00 in0.0 mm 0.00 in0.0 mm 0.00 in0.0 mm
01:29 AM -3.6°F-19.8°C -8.3°F-22.4°C 80% Calm Calm -- 30.48 in1032.2 mb 0.00 in0.0 mm 0.00 in0.0 mm 0.00 in0.0 mm
01:35 AM -3.6°F-19.8°C -8.3°F-22.4°C 80% Calm Calm -- 30.48 in1032.2 mb 0.00 in0.0 mm 0.00 in0.0 mm 0.00 in0.0 mm
01:40 AM -3.6°F-19.8°C -8.3°F-22.4°C 80% Calm Calm -- 30.48 in1032.2 mb 0.00 in0.0 mm 0.00 in0.0 mm 0.00 in0.0 mm
01:45 AM -3.6°F-19.8°C -8.3°F-22.4°C 80% Calm Calm -- 30.48 in1032.2 mb 0.00 in0.0 mm 0.00 in0.0 mm 0.00 in0.0 mm
01:50 AM -3.8°F-19.9°C -8.5°F-22.5°C 80% Calm Calm -- 30.48 in1032.2 mb 0.00 in0.0 mm 0.00 in0.0 mm 0.00 in0.0 mm
01:55 AM -4.0°F-20.0°C -8.7°F-22.6°C 80% Calm Calm -- 30.48 in1032.2 mb 0.00 in0.0 mm 0.00 in0.0 mm 0.00 in0.0 mm
02:00 AM -4.2°F-20.1°C -8.9°F-22.7°C 80% Calm Calm -- 30.47 in1031.8 mb 0.00 in0.0 mm 0.00 in0.0 mm 0.00 in0.0 mm
02:05 AM -4.2°F-20.1°C -8.9°F-22.7°C 80% Calm Calm -- 30.47 in1031.8 mb 0.00 in0.0 mm 0.00 in0.0 mm 0.00 in0.0 mm
02:10 AM -4.2°F-20.1°C -8.9°F-22.7°C 80% Calm Calm -- 30.47 in1031.8 mb 0.00 in0.0 mm 0.00 in0.0 mm 0.00 in0.0 mm
02:15 AM -4.2°F-20.1°C -8.9°F-22.7°C 80% Calm Calm -- 30.47 in1031.8 mb 0.00 in0.0 mm 0.00 in0.0 mm 0.00 in0.0 mm
02:20 AM -4.4°F-20.2°C -8.7°F-22.6°C 81% Calm Calm -- 30.47 in1031.8 mb 0.00 in0.0 mm 0.00 in0.0 mm 0.00 in0.0 mm
02:25 AM -4.4°F-20.2°C -8.7°F-22.6°C 81% Calm Calm -- 30.47 in1031.8 mb 0.00 in0.0 mm 0.00 in0.0 mm 0.00 in0.0 mm
02:30 AM -4.4°F-20.2°C -8.7°F-22.6°C 81% Calm Calm -- 30.47 in1031.8 mb 0.00 in0.0 mm 0.00 in0.0 mm 0.00 in0.0 mm
02:35 AM -4.4°F-20.2°C -8.7°F-22.6°C 81% Calm Calm -- 30.47 in1031.8 mb 0.00 in0.0 mm 0.00 in0.0 mm 0.00 in0.0 mm
02:40 AM -4.4°F-20.2°C -8.7°F-22.6°C 81% Calm Calm -- 30.47 in1031.8 mb 0.00 in0.0 mm 0.00 in0.0 mm 0.00 in0.0 mm
02:45 AM -4.4°F-20.2°C -8.5°F-22.5°C 82% Calm Calm -- 30.46 in1031.5 mb 0.00 in0.0 mm 0.00 in0.0 mm 0.00 in0.0 mm
02:50 AM -4.4°F-20.2°C -8.5°F-22.5°C 82% Calm Calm -- 30.46 in1031.5 mb 0.00 in0.0 mm 0.00 in0.0 mm 0.00 in0.0 mm
02:55 AM -4.4°F-20.2°C -8.5°F-22.5°C 82% Calm Calm -- 30.46 in1031.5 mb 0.00 in0.0 mm 0.00 in0.0 mm 0.00 in0.0 mm
03:00 AM -4.5°F-20.3°C -8.7°F-22.6°C 82% Calm Calm -- 30.46 in1031.5 mb 0.00 in0.0 mm 0.00 in0.0 mm 0.00 in0.0 mm
03:05 AM -4.5°F-20.3°C -8.7°F-22.6°C 82% Calm Calm -- 30.46 in1031.5 mb 0.00 in0.0 mm 0.00 in0.0 mm 0.00 in0.0 mm
03:10 AM -4.7°F-20.4°C -8.9°F-22.7°C 82% Calm Calm -- 30.46 in1031.5 mb 0.00 in0.0 mm 0.00 in0.0 mm 0.00 in0.0 mm
03:15 AM -4.9°F-20.5°C -9.0°F-22.8°C 82% Calm Calm -- 30.46 in1031.5 mb 0.00 in0.0 mm 0.00 in0.0 mm 0.00 in0.0 mm
03:20 AM -4.9°F-20.5°C -8.7°F-22.6°C 83% Calm Calm -- 30.46 in1031.5 mb 0.00 in0.0 mm 0.00 in0.0 mm 0.00 in0.0 mm
03:25 AM -4.7°F-20.4°C -8.5°F-22.5°C 83% Calm Calm -- 30.46 in1031.5 mb 0.00 in0.0 mm 0.00 in0.0 mm 0.00 in0.0 mm
03:30 AM -4.5°F-20.3°C -8.3°F-22.4°C 83% Calm Calm -- 30.46 in1031.5 mb 0.00 in0.0 mm 0.00 in0.0 mm 0.00 in0.0 mm
03:35 AM -4.4°F-20.2°C -8.1°F-22.3°C 83% Calm Calm -- 30.46 in1031.5 mb 0.00 in0.0 mm 0.00 in0.0 mm 0.00 in0.0 mm
03:40 AM -4.4°F-20.2°C -8.5°F-22.5°C 82% Calm Calm -- 30.46 in1031.5 mb 0.00 in0.0 mm 0.00 in0.0 mm 0.00 in0.0 mm
03:45 AM -4.4°F-20.2°C -8.5°F-22.5°C 82% Calm Calm -- 30.47 in1031.8 mb 0.00 in0.0 mm 0.00 in0.0 mm 0.00 in0.0 mm
03:50 AM -4.2°F-20.1°C -8.3°F-22.4°C 82% Calm Calm -- 30.46 in1031.5 mb 0.00 in0.0 mm 0.00 in0.0 mm 0.00 in0.0 mm
03:55 AM -4.2°F-20.1°C -8.5°F-22.5°C 81% Calm Calm -- 30.47 in1031.8 mb 0.00 in0.0 mm 0.00 in0.0 mm 0.00 in0.0 mm
04:00 AM -4.2°F-20.1°C -8.9°F-22.7°C 80% Calm Calm -- 30.46 in1031.5 mb 0.00 in0.0 mm 0.00 in0.0 mm 0.00 in0.0 mm
04:05 AM -4.2°F-20.1°C -8.9°F-22.7°C 80% Calm Calm -- 30.46 in1031.5 mb 0.00 in0.0 mm 0.00 in0.0 mm 0.00 in0.0 mm
04:10 AM -4.0°F-20.0°C -8.7°F-22.6°C 80% Calm Calm -- 30.45 in1031.2 mb 0.00 in0.0 mm 0.00 in0.0 mm 0.00 in0.0 mm
04:15 AM -4.0°F-20.0°C -8.7°F-22.6°C 80% Calm Calm -- 30.45 in1031.2 mb 0.00 in0.0 mm 0.00 in0.0 mm 0.00 in0.0 mm
04:20 AM -3.8°F-19.9°C -8.5°F-22.5°C 80% Calm Calm 1.0 mph1.6 kmh 30.44 in1030.8 mb 0.00 in0.0 mm 0.00 in0.0 mm 0.00 in0.0 mm
04:25 AM -3.8°F-19.9°C -8.7°F-22.6°C 79% Calm Calm 0.9 mph1.4 kmh 30.44 in1030.8 mb 0.00 in0.0 mm 0.00 in0.0 mm 0.00 in0.0 mm
04:30 AM -3.6°F-19.8°C -8.5°F-22.5°C 79% Calm Calm 0.9 mph1.4 kmh 30.44 in1030.8 mb 0.00 in0.0 mm 0.00 in0.0 mm 0.00 in0.0 mm
04:35 AM -3.6°F-19.8°C -8.5°F-22.5°C 79% Calm Calm -- 30.44 in1030.8 mb 0.00 in0.0 mm 0.00 in0.0 mm 0.00 in0.0 mm
04:40 AM -3.3°F-19.6°C -8.1°F-22.3°C 79% Calm Calm 2.0 mph3.2 kmh 30.45 in1031.2 mb 0.00 in0.0 mm 0.00 in0.0 mm 0.00 in0.0 mm
04:45 AM -3.1°F-19.5°C -8.0°F-22.2°C 79% Calm Calm -- 30.45 in1031.2 mb 0.00 in0.0 mm 0.00 in0.0 mm 0.00 in0.0 mm
04:50 AM -2.9°F-19.4°C -7.8°F-22.1°C 79% Calm Calm -- 30.45 in1031.2 mb 0.00 in0.0 mm 0.00 in0.0 mm 0.00 in0.0 mm
04:55 AM -2.9°F-19.4°C -7.8°F-22.1°C 79% Calm Calm -- 30.44 in1030.8 mb 0.00 in0.0 mm 0.00 in0.0 mm 0.00 in0.0 mm
05:00 AM -2.7°F-19.3°C -7.6°F-22.0°C 79% Calm Calm -- 30.45 in1031.2 mb 0.00 in0.0 mm 0.00 in0.0 mm 0.00 in0.0 mm
05:05 AM -2.7°F-19.3°C -7.6°F-22.0°C 79% Calm Calm -- 30.45 in1031.2 mb 0.00 in0.0 mm 0.00 in0.0 mm 0.00 in0.0 mm
05:10 AM -2.7°F-19.3°C -7.6°F-22.0°C 79% Calm Calm -- 30.45 in1031.2 mb 0.00 in0.0 mm 0.00 in0.0 mm 0.00 in0.0 mm
05:15 AM -2.7°F-19.3°C -7.6°F-22.0°C 79% Calm Calm -- 30.46 in1031.5 mb 0.00 in0.0 mm 0.00 in0.0 mm 0.00 in0.0 mm
05:20 AM -2.9°F-19.4°C -7.8°F-22.1°C 79% Calm Calm -- 30.46 in1031.5 mb 0.00 in0.0 mm 0.00 in0.0 mm 0.00 in0.0 mm
05:25 AM -2.9°F-19.4°C -7.8°F-22.1°C 79% Calm Calm -- 30.46 in1031.5 mb 0.00 in0.0 mm 0.00 in0.0 mm 0.00 in0.0 mm
05:30 AM -2.9°F-19.4°C -7.8°F-22.1°C 79% Calm Calm -- 30.46 in1031.5 mb 0.00 in0.0 mm 0.00 in0.0 mm 0.00 in0.0 mm
05:35 AM -2.9°F-19.4°C -7.8°F-22.1°C 79% Calm Calm -- 30.46 in1031.5 mb 0.00 in0.0 mm 0.00 in0.0 mm 0.00 in0.0 mm
05:40 AM -2.9°F-19.4°C -7.8°F-22.1°C 79% Calm Calm -- 30.46 in1031.5 mb 0.00 in0.0 mm 0.00 in0.0 mm 0.00 in0.0 mm
05:46 AM -2.9°F-19.4°C -7.8°F-22.1°C 79% Calm Calm -- 30.46 in1031.5 mb 0.00 in0.0 mm 0.00 in0.0 mm 0.00 in0.0 mm
05:51 AM -2.9°F-19.4°C -7.8°F-22.1°C 79% Calm Calm -- 30.46 in1031.5 mb 0.00 in0.0 mm 0.00 in0.0 mm 0.00 in0.0 mm
05:56 AM -2.9°F-19.4°C -7.8°F-22.1°C 79% Calm Calm -- 30.46 in1031.5 mb 0.00 in0.0 mm 0.00 in0.0 mm 0.00 in0.0 mm
06:01 AM -3.1°F-19.5°C -7.8°F-22.1°C 80% Calm Calm 2.0 mph3.2 kmh 30.46 in1031.5 mb 0.00 in0.0 mm 0.00 in0.0 mm 0.00 in0.0 mm
06:06 AM -2.9°F-19.4°C -7.6°F-22.0°C 80% Calm Calm -- 30.46 in1031.5 mb 0.00 in0.0 mm 0.00 in0.0 mm 0.00 in0.0 mm
06:11 AM -2.9°F-19.4°C -7.6°F-22.0°C 80% Calm Calm -- 30.46 in1031.5 mb 0.00 in0.0 mm 0.00 in0.0 mm 0.00 in0.0 mm
06:16 AM -2.9°F-19.4°C -7.6°F-22.0°C 80% Calm Calm 2.0 mph3.2 kmh 30.46 in1031.5 mb 0.00 in0.0 mm 0.00 in0.0 mm 0.00 in0.0 mm
06:21 AM -2.9°F-19.4°C -7.6°F-22.0°C 80% Calm Calm -- 30.46 in1031.5 mb 0.00 in0.0 mm 0.00 in0.0 mm 0.00 in0.0 mm
06:26 AM -2.7°F-19.3°C -7.4°F-21.9°C 80% Calm Calm 2.0 mph3.2 kmh 30.46 in1031.5 mb 0.00 in0.0 mm 0.00 in0.0 mm 0.00 in0.0 mm
06:31 AM -2.6°F-19.2°C -7.2°F-21.8°C 80% Calm Calm 4.0 mph6.4 kmh 30.45 in1031.2 mb 0.00 in0.0 mm 0.00 in0.0 mm 0.00 in0.0 mm
06:36 AM -2.4°F-19.1°C -7.2°F-21.8°C 79% 0.9 mph S1.4 kmh S 4.9 mph7.9 kmh 30.45 in1031.2 mb 0.00 in0.0 mm 0.00 in0.0 mm 0.00 in0.0 mm
06:41 AM -2.4°F-19.1°C -7.2°F-21.8°C 79% 2.0 mph SSW3.2 kmh SSW 4.9 mph7.9 kmh 30.44 in1030.8 mb 0.00 in0.0 mm 0.00 in0.0 mm 0.00 in0.0 mm
06:46 AM -2.4°F-19.1°C -7.6°F-22.0°C 78% 2.0 mph SW3.2 kmh SW 4.0 mph6.4 kmh 30.44 in1030.8 mb 0.00 in0.0 mm 0.00 in0.0 mm 0.00 in0.0 mm
06:51 AM -2.2°F-19.0°C -7.4°F-21.9°C 78% 2.0 mph SSW3.2 kmh SSW 6.0 mph9.7 kmh 30.44 in1030.8 mb 0.00 in0.0 mm 0.00 in0.0 mm 0.00 in0.0 mm
06:56 AM -2.0°F-18.9°C -7.2°F-21.8°C 78% 2.0 mph SSE3.2 kmh SSE 4.9 mph7.9 kmh 30.44 in1030.8 mb 0.00 in0.0 mm 0.00 in0.0 mm 0.00 in0.0 mm
07:01 AM -2.0°F-18.9°C -7.2°F-21.8°C 78% 2.0 mph S3.2 kmh S 6.0 mph9.7 kmh 30.45 in1031.2 mb 0.00 in0.0 mm 0.00 in0.0 mm 0.00 in0.0 mm
07:06 AM -1.8°F-18.8°C -7.2°F-21.8°C 77% 2.9 mph S4.7 kmh S 6.9 mph11.1 kmh 30.44 in1030.8 mb 0.00 in0.0 mm 0.00 in0.0 mm 0.00 in0.0 mm
07:11 AM -1.8°F-18.8°C -7.2°F-21.8°C 77% 2.0 mph SSW3.2 kmh SSW 4.0 mph6.4 kmh 30.44 in1030.8 mb 0.00 in0.0 mm 0.00 in0.0 mm 0.00 in0.0 mm
07:16 AM -1.8°F-18.8°C -7.2°F-21.8°C 77% 0.9 mph SSW1.4 kmh SSW 2.9 mph4.7 kmh 30.44 in1030.8 mb 0.00 in0.0 mm 0.00 in0.0 mm 0.00 in0.0 mm
07:21 AM -1.8°F-18.8°C -7.2°F-21.8°C 77% 0.9 mph SSW1.4 kmh SSW 4.0 mph6.4 kmh 30.44 in1030.8 mb 0.00 in0.0 mm 0.00 in0.0 mm 0.00 in0.0 mm
07:26 AM -1.8°F-18.8°C -7.2°F-21.8°C 77% 0.9 mph SSW1.4 kmh SSW 4.0 mph6.4 kmh 30.44 in1030.8 mb 0.00 in0.0 mm 0.00 in0.0 mm 0.00 in0.0 mm
07:31 AM -1.8°F-18.8°C -7.2°F-21.8°C 77% 0.9 mph SSW1.4 kmh SSW 4.0 mph6.4 kmh 30.44 in1030.8 mb 0.00 in0.0 mm 0.00 in0.0 mm 0.00 in0.0 mm
07:36 AM -1.7°F-18.7°C -7.1°F-21.7°C 77% 2.0 mph S3.2 kmh S 4.0 mph6.4 kmh 30.44 in1030.8 mb 0.00 in0.0 mm 0.00 in0.0 mm 0.00 in0.0 mm
07:41 AM -1.5°F-18.6°C -6.9°F-21.6°C 77% 2.0 mph S3.2 kmh S 4.0 mph6.4 kmh 30.44 in1030.8 mb 0.00 in0.0 mm 0.00 in0.0 mm 0.00 in0.0 mm
07:46 AM -1.1°F-18.4°C -6.5°F-21.4°C 77% 2.0 mph S3.2 kmh S 6.0 mph9.7 kmh 30.44 in1030.8 mb 0.00 in0.0 mm 0.00 in0.0 mm 0.00 in0.0 mm
07:51 AM -0.8°F-18.2°C -6.5°F-21.4°C 76% 2.0 mph S3.2 kmh S 6.9 mph11.1 kmh 30.44 in1030.8 mb 0.00 in0.0 mm 0.00 in0.0 mm 0.00 in0.0 mm
07:56 AM -0.2°F-17.9°C -6.2°F-21.2°C 75% 2.0 mph SW3.2 kmh SW 4.9 mph7.9 kmh 30.44 in1030.8 mb 0.00 in0.0 mm 0.00 in0.0 mm 0.00 in0.0 mm
08:01 AM 0.0°F-17.8°C -6.3°F-21.3°C 74% 2.0 mph S3.2 kmh S 4.9 mph7.9 kmh 30.44 in1030.8 mb 0.00 in0.0 mm 0.00 in0.0 mm 0.00 in0.0 mm
08:06 AM 0.3°F-17.6°C -6.0°F-21.1°C 74% 0.9 mph SSW1.4 kmh SSW 2.0 mph3.2 kmh 30.45 in1031.2 mb 0.00 in0.0 mm 0.00 in0.0 mm 0.00 in0.0 mm
08:11 AM 0.7°F-17.4°C -6.0°F-21.1°C 73% 0.9 mph S1.4 kmh S 6.9 mph11.1 kmh 30.45 in1031.2 mb 0.00 in0.0 mm 0.00 in0.0 mm 0.00 in0.0 mm
08:16 AM 0.9°F-17.3°C -6.0°F-21.1°C 72% 2.0 mph SSW3.2 kmh SSW 6.0 mph9.7 kmh 30.45 in1031.2 mb 0.00 in0.0 mm 0.00 in0.0 mm 0.00 in0.0 mm
08:21 AM 1.0°F-17.2°C -5.8°F-21.0°C 72% 2.9 mph S4.7 kmh S 6.0 mph9.7 kmh 30.45 in1031.2 mb 0.00 in0.0 mm 0.00 in0.0 mm 0.00 in0.0 mm
08:26 AM 1.6°F-16.9°C -5.3°F-20.7°C 72% 2.9 mph S4.7 kmh S 7.0 mph11.3 kmh 30.45 in1031.2 mb 0.00 in0.0 mm 0.00 in0.0 mm 0.00 in0.0 mm
08:31 AM 1.9°F-16.7°C -5.1°F-20.6°C 72% 2.0 mph S3.2 kmh S 4.9 mph7.9 kmh 30.45 in1031.2 mb 0.00 in0.0 mm 0.00 in0.0 mm 0.00 in0.0 mm
08:36 AM 2.1°F-16.6°C -5.1°F-20.6°C 71% 2.9 mph SSE4.7 kmh SSE 6.9 mph11.1 kmh 30.45 in1031.2 mb 0.00 in0.0 mm 0.00 in0.0 mm 0.00 in0.0 mm
08:41 AM 2.7°F-16.3°C -4.5°F-20.3°C 71% 2.9 mph SSW4.7 kmh SSW 6.0 mph9.7 kmh 30.45 in1031.2 mb 0.00 in0.0 mm 0.00 in0.0 mm 0.00 in0.0 mm
08:46 AM 3.0°F-16.1°C -4.2°F-20.1°C 71% 2.0 mph S3.2 kmh S 6.0 mph9.7 kmh 30.45 in1031.2 mb 0.00 in0.0 mm 0.00 in0.0 mm 0.00 in0.0 mm
08:51 AM 3.6°F-15.8°C -3.6°F-19.8°C 71% 2.0 mph SSE3.2 kmh SSE 7.0 mph11.3 kmh 30.44 in1030.8 mb 0.00 in0.0 mm 0.00 in0.0 mm 0.00 in0.0 mm
08:56 AM 3.9°F-15.6°C -3.6°F-19.8°C 70% 2.0 mph S3.2 kmh S 4.9 mph7.9 kmh 30.44 in1030.8 mb 0.00 in0.0 mm 0.00 in0.0 mm 0.00 in0.0 mm
09:01 AM 4.3°F-15.4°C -3.6°F-19.8°C 69% 2.9 mph S4.7 kmh S 7.0 mph11.3 kmh 30.44 in1030.8 mb 0.00 in0.0 mm 0.00 in0.0 mm 0.00 in0.0 mm
09:06 AM 4.5°F-15.3°C -3.5°F-19.7°C 69% 2.9 mph SSW4.7 kmh SSW 9.0 mph14.5 kmh 30.44 in1030.8 mb 0.00 in0.0 mm 0.00 in0.0 mm 0.00 in0.0 mm
09:11 AM 4.8°F-15.1°C -3.1°F-19.5°C 69% 2.0 mph SW3.2 kmh SW 6.0 mph9.7 kmh 30.44 in1030.8 mb 0.00 in0.0 mm 0.00 in0.0 mm 0.00 in0.0 mm
09:16 AM 5.2°F-14.9°C -3.1°F-19.5°C 68% 2.0 mph S3.2 kmh S 8.1 mph13.0 kmh 30.44 in1030.8 mb 0.00 in0.0 mm 0.00 in0.0 mm 0.00 in0.0 mm
09:21 AM 5.7°F-14.6°C -2.9°F-19.4°C 67% 2.9 mph SSW4.7 kmh SSW 13.0 mph20.9 kmh 30.44 in1030.8 mb 0.00 in0.0 mm 0.00 in0.0 mm 0.00 in0.0 mm
09:26 AM 6.3°F-14.3°C -2.0°F-18.9°C 68% 2.9 mph S4.7 kmh S 6.0 mph9.7 kmh 30.44 in1030.8 mb 0.00 in0.0 mm 0.00 in0.0 mm 0.00 in0.0 mm
09:31 AM 6.8°F-14.0°C -1.5°F-18.6°C 68% 2.0 mph S3.2 kmh S 8.1 mph13.0 kmh 30.44 in1030.8 mb 0.00 in0.0 mm 0.00 in0.0 mm 0.00 in0.0 mm
09:36 AM 7.2°F-13.8°C -1.5°F-18.6°C 67% 2.0 mph S3.2 kmh S 6.0 mph9.7 kmh 30.44 in1030.8 mb 0.00 in0.0 mm 0.00 in0.0 mm 0.00 in0.0 mm
09:41 AM 7.3°F-13.7°C -1.7°F-18.7°C 66% 2.9 mph S4.7 kmh S 11.0 mph17.7 kmh 30.43 in1030.5 mb 0.00 in0.0 mm 0.00 in0.0 mm 0.00 in0.0 mm
09:46 AM 7.5°F-13.6°C -1.5°F-18.6°C 66% 2.9 mph SSE4.7 kmh SSE 11.0 mph17.7 kmh 30.43 in1030.5 mb 0.00 in0.0 mm 0.00 in0.0 mm 0.00 in0.0 mm
09:51 AM 7.9°F-13.4°C -0.8°F-18.2°C 67% 2.9 mph SSW4.7 kmh SSW 6.9 mph11.1 kmh 30.43 in1030.5 mb 0.00 in0.0 mm 0.00 in0.0 mm 0.00 in0.0 mm
09:56 AM 8.4°F-13.1°C -0.6°F-18.1°C 66% 2.9 mph S4.7 kmh S 6.0 mph9.7 kmh 30.43 in1030.5 mb 0.00 in0.0 mm 0.00 in0.0 mm 0.00 in0.0 mm
10:01 AM 9.0°F-12.8°C -0.4°F-18.0°C 65% 2.0 mph SE3.2 kmh SE 10.0 mph16.1 kmh 30.43 in1030.5 mb 0.00 in0.0 mm 0.00 in0.0 mm 0.00 in0.0 mm
10:06 AM 9.7°F-12.4°C 0.3°F-17.6°C 65% 2.0 mph SSE3.2 kmh SSE 10.1 mph16.3 kmh 30.43 in1030.5 mb 0.00 in0.0 mm 0.00 in0.0 mm 0.00 in0.0 mm
10:11 AM 9.7°F-12.4°C 0.0°F-17.8°C 64% 4.0 mph SE6.4 kmh SE 8.9 mph14.3 kmh 30.42 in1030.1 mb 0.00 in0.0 mm 0.00 in0.0 mm 0.00 in0.0 mm
10:16 AM 10.0°F-12.2°C 0.3°F-17.6°C 64% 4.0 mph SE6.4 kmh SE 10.1 mph16.3 kmh 30.42 in1030.1 mb 0.00 in0.0 mm 0.00 in0.0 mm 0.00 in0.0 mm
10:21 AM 10.2°F-12.1°C 0.1°F-17.7°C 63% 4.0 mph SW6.4 kmh SW 8.9 mph14.3 kmh 30.41 in1029.8 mb 0.00 in0.0 mm 0.00 in0.0 mm 0.00 in0.0 mm
10:26 AM 10.8°F-11.8°C 1.0°F-17.2°C 64% 2.9 mph SE4.7 kmh SE 4.9 mph7.9 kmh 30.41 in1029.8 mb 0.00 in0.0 mm 0.00 in0.0 mm 0.00 in0.0 mm
10:31 AM 11.3°F-11.5°C 1.2°F-17.1°C 63% 2.0 mph SE3.2 kmh SE 6.0 mph9.7 kmh 30.41 in1029.8 mb 0.00 in0.0 mm 0.00 in0.0 mm 0.00 in0.0 mm
10:36 AM 11.7°F-11.3°C 0.9°F-17.3°C 61% 2.0 mph SW3.2 kmh SW 8.1 mph13.0 kmh 30.41 in1029.8 mb 0.00 in0.0 mm 0.00 in0.0 mm 0.00 in0.0 mm
10:41 AM 11.8°F-11.2°C 1.0°F-17.2°C 61% 2.9 mph SE4.7 kmh SE 8.1 mph13.0 kmh 30.41 in1029.8 mb 0.00 in0.0 mm 0.00 in0.0 mm 0.00 in0.0 mm
10:46 AM 12.0°F-11.1°C 0.9°F-17.3°C 60% 4.0 mph SSW6.4 kmh SSW 8.9 mph14.3 kmh 30.41 in1029.8 mb 0.00 in0.0 mm 0.00 in0.0 mm 0.00 in0.0 mm
10:51 AM 12.4°F-10.9°C 1.2°F-17.1°C 60% 4.0 mph S6.4 kmh S 8.9 mph14.3 kmh 30.41 in1029.8 mb 0.00 in0.0 mm 0.00 in0.0 mm 0.00 in0.0 mm
10:56 AM 12.6°F-10.8°C 1.4°F-17.0°C 60% 4.0 mph SSE6.4 kmh SSE 11.0 mph17.7 kmh 30.41 in1029.8 mb 0.00 in0.0 mm 0.00 in0.0 mm 0.00 in0.0 mm
11:01 AM 13.3°F-10.4°C 1.9°F-16.7°C 60% 2.9 mph S4.7 kmh S 6.9 mph11.1 kmh 30.41 in1029.8 mb 0.00 in0.0 mm 0.00 in0.0 mm 0.00 in0.0 mm
11:06 AM 13.6°F-10.2°C 1.9°F-16.7°C 59% 2.0 mph S3.2 kmh S 6.0 mph9.7 kmh 30.41 in1029.8 mb 0.00 in0.0 mm 0.00 in0.0 mm 0.00 in0.0 mm
11:11 AM 13.8°F-10.1°C 1.8°F-16.8°C 58% 2.9 mph SSE4.7 kmh SSE 10.1 mph16.3 kmh 30.41 in1029.8 mb 0.00 in0.0 mm 0.00 in0.0 mm 0.00 in0.0 mm
11:16 AM 13.8°F-10.1°C 1.0°F-17.2°C 56% 4.0 mph S6.4 kmh S 11.0 mph17.7 kmh 30.41 in1029.8 mb 0.00 in0.0 mm 0.00 in0.0 mm 0.00 in0.0 mm
11:21 AM 13.8°F-10.1°C 1.4°F-17.0°C 57% 4.9 mph SW7.9 kmh SW 8.9 mph14.3 kmh 30.41 in1029.8 mb 0.00 in0.0 mm 0.00 in0.0 mm 0.00 in0.0 mm
11:26 AM 14.2°F-9.9°C 1.4°F-17.0°C 56% 4.0 mph SW6.4 kmh SW 8.9 mph14.3 kmh 30.41 in1029.8 mb 0.00 in0.0 mm 0.00 in0.0 mm 0.00 in0.0 mm
11:31 AM 14.5°F-9.7°C 1.8°F-16.8°C 56% 4.0 mph SW6.4 kmh SW 6.9 mph11.1 kmh 30.41 in1029.8 mb 0.00 in0.0 mm 0.00 in0.0 mm 0.00 in0.0 mm
11:36 AM 14.9°F-9.5°C 2.5°F-16.4°C 57% 2.9 mph SSW4.7 kmh SSW 8.1 mph13.0 kmh 30.41 in1029.8 mb 0.00 in0.0 mm 0.00 in0.0 mm 0.00 in0.0 mm
11:51 AM 15.6°F-9.1°C 2.3°F-16.5°C 55% 2.9 mph SW4.7 kmh SW 8.1 mph13.0 kmh 30.39 in1029.1 mb 0.00 in0.0 mm 0.00 in0.0 mm 0.00 in0.0 mm
11:56 AM 15.8°F-9.0°C 2.1°F-16.6°C 54% 2.9 mph SW4.7 kmh SW 8.1 mph13.0 kmh 30.38 in1028.8 mb 0.00 in0.0 mm 0.00 in0.0 mm 0.00 in0.0 mm
12:06 PM 16.0°F-8.9°C 2.3°F-16.5°C 54% 4.0 mph SSW6.4 kmh SSW 12.0 mph19.3 kmh 30.38 in1028.8 mb 0.00 in0.0 mm 0.00 in0.0 mm 0.00 in0.0 mm
12:21 PM 17.1°F-8.3°C 2.5°F-16.4°C 52% 4.0 mph S6.4 kmh S 8.1 mph13.0 kmh 30.36 in1028.1 mb 0.00 in0.0 mm 0.00 in0.0 mm 0.00 in0.0 mm
12:26 PM 17.2°F-8.2°C 3.4°F-15.9°C 54% 4.0 mph S6.4 kmh S 10.1 mph16.3 kmh 30.36 in1028.1 mb 0.00 in0.0 mm 0.00 in0.0 mm 0.00 in0.0 mm
12:46 PM 17.4°F-8.1°C 2.3°F-16.5°C 51% 4.0 mph S6.4 kmh S 11.0 mph17.7 kmh 30.35 in1027.8 mb 0.00 in0.0 mm 0.00 in0.0 mm 0.00 in0.0 mm
12:51 PM 17.4°F-8.1°C 2.3°F-16.5°C 51% 4.0 mph S6.4 kmh S 11.0 mph17.7 kmh 30.35 in1027.8 mb 0.00 in0.0 mm 0.00 in0.0 mm 0.00 in0.0 mm
12:56 PM 18.0°F-7.8°C 2.8°F-16.2°C 51% 4.0 mph SE6.4 kmh SE 8.9 mph14.3 kmh 30.34 in1027.4 mb 0.00 in0.0 mm 0.00 in0.0 mm 0.00 in0.0 mm
01:01 PM 18.0°F-7.8°C 2.5°F-16.4°C 50% 4.0 mph S6.4 kmh S 12.1 mph19.5 kmh 30.34 in1027.4 mb 0.00 in0.0 mm 0.00 in0.0 mm 0.00 in0.0 mm
01:06 PM 18.1°F-7.7°C 2.7°F-16.3°C 50% 4.0 mph S6.4 kmh S 14.1 mph22.7 kmh 30.33 in1027.1 mb 0.00 in0.0 mm 0.00 in0.0 mm 0.00 in0.0 mm
01:11 PM 18.3°F-7.6°C 2.8°F-16.2°C 50% 4.0 mph SSE6.4 kmh SSE 8.1 mph13.0 kmh 30.34 in1027.4 mb 0.00 in0.0 mm 0.00 in0.0 mm 0.00 in0.0 mm
01:16 PM 18.7°F-7.4°C 3.6°F-15.8°C 51% 2.9 mph S4.7 kmh S 8.1 mph13.0 kmh 30.33 in1027.1 mb 0.00 in0.0 mm 0.00 in0.0 mm 0.00 in0.0 mm
01:21 PM 18.7°F-7.4°C 2.7°F-16.3°C 49% 4.0 mph S6.4 kmh S 9.0 mph14.5 kmh 30.32 in1026.8 mb 0.00 in0.0 mm 0.00 in0.0 mm 0.00 in0.0 mm
01:26 PM 18.5°F-7.5°C 1.6°F-16.9°C 47% 4.9 mph S7.9 kmh S 13.0 mph20.9 kmh 30.32 in1026.8 mb 0.00 in0.0 mm 0.00 in0.0 mm 0.00 in0.0 mm
01:31 PM 18.3°F-7.6°C 1.4°F-17.0°C 47% 6.0 mph SE9.7 kmh SE 10.1 mph16.3 kmh 30.31 in1026.4 mb 0.00 in0.0 mm 0.00 in0.0 mm 0.00 in0.0 mm
01:36 PM 18.7°F-7.4°C 2.7°F-16.3°C 49% 4.9 mph SSE7.9 kmh SSE 8.9 mph14.3 kmh 30.30 in1026.1 mb 0.00 in0.0 mm 0.00 in0.0 mm 0.00 in0.0 mm
01:41 PM 18.9°F-7.3°C 2.8°F-16.2°C 49% 4.0 mph ESE6.4 kmh ESE 8.1 mph13.0 kmh 30.30 in1026.1 mb 0.00 in0.0 mm 0.00 in0.0 mm 0.00 in0.0 mm
01:46 PM 18.9°F-7.3°C 3.7°F-15.7°C 51% 4.0 mph SE6.4 kmh SE 8.9 mph14.3 kmh 30.30 in1026.1 mb 0.00 in0.0 mm 0.00 in0.0 mm 0.00 in0.0 mm
01:51 PM 18.9°F-7.3°C 1.9°F-16.7°C 47% 4.0 mph SE6.4 kmh SE 13.0 mph20.9 kmh 30.30 in1026.1 mb 0.00 in0.0 mm 0.00 in0.0 mm 0.00 in0.0 mm
01:56 PM 18.7°F-7.4°C 1.8°F-16.8°C 47% 4.9 mph SSW7.9 kmh SSW 12.1 mph19.5 kmh 30.30 in1026.1 mb 0.00 in0.0 mm 0.00 in0.0 mm 0.00 in0.0 mm
02:01 PM 18.9°F-7.3°C 2.8°F-16.2°C 49% 4.9 mph S7.9 kmh S 8.9 mph14.3 kmh 30.29 in1025.7 mb 0.00 in0.0 mm 0.00 in0.0 mm 0.00 in0.0 mm
02:06 PM 19.2°F-7.1°C 2.7°F-16.3°C 48% 4.0 mph S6.4 kmh S 11.0 mph17.7 kmh 30.29 in1025.7 mb 0.00 in0.0 mm 0.00 in0.0 mm 0.00 in0.0 mm
02:11 PM 19.4°F-7.0°C 2.8°F-16.2°C 48% 4.0 mph SE6.4 kmh SE 13.0 mph20.9 kmh 30.29 in1025.7 mb 0.00 in0.0 mm 0.00 in0.0 mm 0.00 in0.0 mm
02:16 PM 19.8°F-6.8°C 3.7°F-15.7°C 49% 4.0 mph SSE6.4 kmh SSE 6.9 mph11.1 kmh 30.28 in1025.4 mb 0.00 in0.0 mm 0.00 in0.0 mm 0.00 in0.0 mm
02:21 PM 20.1°F-6.6°C 3.2°F-16.0°C 47% 2.9 mph S4.7 kmh S 13.0 mph20.9 kmh 30.28 in1025.4 mb 0.00 in0.0 mm 0.00 in0.0 mm 0.00 in0.0 mm
02:26 PM 19.9°F-6.7°C 2.5°F-16.4°C 46% 4.9 mph S7.9 kmh S 11.0 mph17.7 kmh 30.28 in1025.4 mb 0.00 in0.0 mm 0.00 in0.0 mm 0.00 in0.0 mm
02:31 PM 20.1°F-6.6°C 3.6°F-15.8°C 48% 4.9 mph SSE7.9 kmh SSE 10.1 mph16.3 kmh 30.28 in1025.4 mb 0.00 in0.0 mm 0.00 in0.0 mm 0.00 in0.0 mm
02:36 PM 20.1°F-6.6°C 3.2°F-16.0°C 47% 4.0 mph S6.4 kmh S 8.9 mph14.3 kmh 30.28 in1025.4 mb 0.00 in0.0 mm 0.00 in0.0 mm 0.00 in0.0 mm
02:41 PM 20.1°F-6.6°C 3.2°F-16.0°C 47% 4.9 mph SE7.9 kmh SE 11.0 mph17.7 kmh 30.28 in1025.4 mb 0.00 in0.0 mm 0.00 in0.0 mm 0.00 in0.0 mm
02:46 PM 20.1°F-6.6°C 4.1°F-15.5°C 49% 4.9 mph S7.9 kmh S 8.9 mph14.3 kmh 30.27 in1025.1 mb 0.00 in0.0 mm 0.00 in0.0 mm 0.00 in0.0 mm
02:51 PM 20.5°F-6.4°C 3.9°F-15.6°C 48% 2.9 mph SE4.7 kmh SE 8.1 mph13.0 kmh 30.27 in1025.1 mb 0.00 in0.0 mm 0.00 in0.0 mm 0.00 in0.0 mm
02:56 PM 20.5°F-6.4°C 3.4°F-15.9°C 47% 4.0 mph SSW6.4 kmh SSW 12.1 mph19.5 kmh 30.27 in1025.1 mb 0.00 in0.0 mm 0.00 in0.0 mm 0.00 in0.0 mm
03:01 PM 20.7°F-6.3°C 4.1°F-15.5°C 48% 4.0 mph S6.4 kmh S 8.1 mph13.0 kmh 30.26 in1024.7 mb 0.00 in0.0 mm 0.00 in0.0 mm 0.00 in0.0 mm
03:06 PM 20.7°F-6.3°C 2.7°F-16.3°C 45% 4.9 mph S7.9 kmh S 15.0 mph24.1 kmh 30.26 in1024.7 mb 0.00 in0.0 mm 0.00 in0.0 mm 0.00 in0.0 mm
03:11 PM 20.7°F-6.3°C 3.2°F-16.0°C 46% 6.0 mph S9.7 kmh S 11.0 mph17.7 kmh 30.25 in1024.4 mb 0.00 in0.0 mm 0.00 in0.0 mm 0.00 in0.0 mm
03:16 PM 21.2°F-6.0°C 3.2°F-16.0°C 45% 4.9 mph SE7.9 kmh SE 14.0 mph22.5 kmh 30.25 in1024.4 mb 0.00 in0.0 mm 0.00 in0.0 mm 0.00 in0.0 mm
03:22 PM 20.8°F-6.2°C 2.3°F-16.5°C 44% 6.0 mph SE9.7 kmh SE 11.0 mph17.7 kmh 30.25 in1024.4 mb 0.00 in0.0 mm 0.00 in0.0 mm 0.00 in0.0 mm
03:27 PM 20.5°F-6.4°C 2.5°F-16.4°C 45% 6.0 mph WSW9.7 kmh WSW 13.0 mph20.9 kmh 30.25 in1024.4 mb 0.00 in0.0 mm 0.00 in0.0 mm 0.00 in0.0 mm
03:32 PM 20.7°F-6.3°C 2.7°F-16.3°C 45% 4.0 mph S6.4 kmh S 10.1 mph16.3 kmh 30.24 in1024.0 mb 0.00 in0.0 mm 0.00 in0.0 mm 0.00 in0.0 mm
03:37 PM 20.8°F-6.2°C 2.8°F-16.2°C 45% 4.0 mph ESE6.4 kmh ESE 12.1 mph19.5 kmh 30.23 in1023.7 mb 0.00 in0.0 mm 0.00 in0.0 mm 0.00 in0.0 mm
03:42 PM 20.8°F-6.2°C 2.8°F-16.2°C 45% 4.9 mph SSW7.9 kmh SSW 11.0 mph17.7 kmh 30.23 in1023.7 mb 0.00 in0.0 mm 0.00 in0.0 mm 0.00 in0.0 mm
03:47 PM 20.8°F-6.2°C 2.8°F-16.2°C 45% 4.9 mph S7.9 kmh S 11.0 mph17.7 kmh 30.23 in1023.7 mb 0.00 in0.0 mm 0.00 in0.0 mm 0.00 in0.0 mm
03:52 PM 21.0°F-6.1°C 3.9°F-15.6°C 47% 4.0 mph SSE6.4 kmh SSE 10.1 mph16.3 kmh 30.23 in1023.7 mb 0.00 in0.0 mm 0.00 in0.0 mm 0.00 in0.0 mm
03:57 PM 21.0°F-6.1°C 4.5°F-15.3°C 48% 4.0 mph SSE6.4 kmh SSE 11.0 mph17.7 kmh 30.24 in1024.0 mb 0.00 in0.0 mm 0.00 in0.0 mm 0.00 in0.0 mm
04:02 PM 21.0°F-6.1°C 4.5°F-15.3°C 48% 4.0 mph SSW6.4 kmh SSW 11.0 mph17.7 kmh 30.23 in1023.7 mb 0.00 in0.0 mm 0.00 in0.0 mm 0.00 in0.0 mm
04:07 PM 20.8°F-6.2°C 3.7°F-15.7°C 47% 4.0 mph SSE6.4 kmh SSE 13.0 mph20.9 kmh 30.23 in1023.7 mb 0.00 in0.0 mm 0.00 in0.0 mm 0.00 in0.0 mm
04:12 PM 20.8°F-6.2°C 4.3°F-15.4°C 48% 4.9 mph S7.9 kmh S 12.1 mph19.5 kmh 30.23 in1023.7 mb 0.00 in0.0 mm 0.00 in0.0 mm 0.00 in0.0 mm
04:17 PM 20.7°F-6.3°C 5.4°F-14.8°C 51% 4.0 mph SSW6.4 kmh SSW 8.1 mph13.0 kmh 30.22 in1023.4 mb 0.00 in0.0 mm 0.00 in0.0 mm 0.00 in0.0 mm
04:22 PM 20.7°F-6.3°C 5.0°F-15.0°C 50% 2.9 mph S4.7 kmh S 10.1 mph16.3 kmh 30.21 in1023.0 mb 0.00 in0.0 mm 0.00 in0.0 mm 0.00 in0.0 mm
04:27 PM 20.3°F-6.5°C 5.0°F-15.0°C 51% 4.0 mph SE6.4 kmh SE 11.0 mph17.7 kmh 30.20 in1022.7 mb 0.00 in0.0 mm 0.00 in0.0 mm 0.00 in0.0 mm
04:32 PM 20.1°F-6.6°C 4.8°F-15.1°C 51% 4.0 mph SSE6.4 kmh SSE 8.1 mph13.0 kmh 30.20 in1022.7 mb 0.00 in0.0 mm 0.00 in0.0 mm 0.00 in0.0 mm
04:37 PM 19.9°F-6.7°C 4.6°F-15.2°C 51% 4.0 mph SE6.4 kmh SE 9.0 mph14.5 kmh 30.20 in1022.7 mb 0.00 in0.0 mm 0.00 in0.0 mm 0.00 in0.0 mm
04:42 PM 19.8°F-6.8°C 4.6°F-15.2°C 51% 4.0 mph SSE6.4 kmh SSE 8.9 mph14.3 kmh 30.20 in1022.7 mb 0.00 in0.0 mm 0.00 in0.0 mm 0.00 in0.0 mm
04:47 PM 19.8°F-6.8°C 5.0°F-15.0°C 52% 4.0 mph S6.4 kmh S 10.1 mph16.3 kmh 30.20 in1022.7 mb 0.00 in0.0 mm 0.00 in0.0 mm 0.00 in0.0 mm
04:52 PM 19.6°F-6.9°C 5.2°F-14.9°C 53% 2.9 mph SSW4.7 kmh SSW 6.9 mph11.1 kmh 30.20 in1022.7 mb 0.00 in0.0 mm 0.00 in0.0 mm 0.00 in0.0 mm
04:57 PM 19.4°F-7.0°C 5.0°F-15.0°C 53% 2.9 mph SE4.7 kmh SE 8.1 mph13.0 kmh 30.21 in1023.0 mb 0.00 in0.0 mm 0.00 in0.0 mm 0.00 in0.0 mm
05:02 PM 19.2°F-7.1°C 5.4°F-14.8°C 54% 2.9 mph SE4.7 kmh SE 8.1 mph13.0 kmh 30.21 in1023.0 mb 0.00 in0.0 mm 0.00 in0.0 mm 0.00 in0.0 mm
05:07 PM 18.9°F-7.3°C 5.0°F-15.0°C 54% 2.9 mph SSE4.7 kmh SSE 11.0 mph17.7 kmh 30.22 in1023.4 mb 0.00 in0.0 mm 0.00 in0.0 mm 0.00 in0.0 mm
05:12 PM 18.7°F-7.4°C 5.2°F-14.9°C 55% 4.0 mph SE6.4 kmh SE 8.9 mph14.3 kmh 30.22 in1023.4 mb 0.00 in0.0 mm 0.00 in0.0 mm 0.00 in0.0 mm
05:17 PM 18.3°F-7.6°C 4.8°F-15.1°C 55% 4.0 mph SSE6.4 kmh SSE 11.0 mph17.7 kmh 30.21 in1023.0 mb 0.00 in0.0 mm 0.00 in0.0 mm 0.00 in0.0 mm
05:22 PM 18.3°F-7.6°C 5.2°F-14.9°C 56% 2.9 mph S4.7 kmh S 6.9 mph11.1 kmh 30.22 in1023.4 mb 0.00 in0.0 mm 0.00 in0.0 mm 0.00 in0.0 mm
05:27 PM 18.3°F-7.6°C 5.2°F-14.9°C 56% 2.0 mph S3.2 kmh S 11.0 mph17.7 kmh 30.21 in1023.0 mb 0.00 in0.0 mm 0.00 in0.0 mm 0.00 in0.0 mm
05:32 PM 18.3°F-7.6°C 5.2°F-14.9°C 56% 2.9 mph SSW4.7 kmh SSW 8.9 mph14.3 kmh 30.21 in1023.0 mb 0.00 in0.0 mm 0.00 in0.0 mm 0.00 in0.0 mm
05:37 PM 18.1°F-7.7°C 5.0°F-15.0°C 56% 2.9 mph SE4.7 kmh SE 8.9 mph14.3 kmh 30.21 in1023.0 mb 0.00 in0.0 mm 0.00 in0.0 mm 0.00 in0.0 mm
05:42 PM 18.1°F-7.7°C 5.0°F-15.0°C 56% 4.0 mph SSE6.4 kmh SSE 8.9 mph14.3 kmh 30.21 in1023.0 mb 0.00 in0.0 mm 0.00 in0.0 mm 0.00 in0.0 mm
05:47 PM 18.1°F-7.7°C 5.5°F-14.7°C 57% 4.0 mph SE6.4 kmh SE 8.1 mph13.0 kmh 30.20 in1022.7 mb 0.00 in0.0 mm 0.00 in0.0 mm 0.00 in0.0 mm
05:52 PM 18.1°F-7.7°C 5.5°F-14.7°C 57% 4.0 mph SSE6.4 kmh SSE 11.0 mph17.7 kmh 30.19 in1022.4 mb 0.00 in0.0 mm 0.00 in0.0 mm 0.00 in0.0 mm
05:57 PM 18.1°F-7.7°C 5.5°F-14.7°C 57% 4.0 mph SSE6.4 kmh SSE 8.9 mph14.3 kmh 30.18 in1022.0 mb 0.00 in0.0 mm 0.00 in0.0 mm 0.00 in0.0 mm
06:02 PM 18.0°F-7.8°C 5.7°F-14.6°C 58% 2.9 mph SE4.7 kmh SE 8.9 mph14.3 kmh 30.18 in1022.0 mb 0.00 in0.0 mm 0.00 in0.0 mm 0.00 in0.0 mm
06:07 PM 17.8°F-7.9°C 5.5°F-14.7°C 58% 2.9 mph SE4.7 kmh SE 12.1 mph19.5 kmh 30.18 in1022.0 mb 0.00 in0.0 mm 0.00 in0.0 mm 0.00 in0.0 mm
06:12 PM 17.8°F-7.9°C 5.5°F-14.7°C 58% 2.9 mph SE4.7 kmh SE 8.1 mph13.0 kmh 30.18 in1022.0 mb 0.00 in0.0 mm 0.00 in0.0 mm 0.00 in0.0 mm
06:17 PM 17.8°F-7.9°C 5.5°F-14.7°C 58% 2.9 mph SE4.7 kmh SE 11.0 mph17.7 kmh 30.18 in1022.0 mb 0.00 in0.0 mm 0.00 in0.0 mm 0.00 in0.0 mm
06:22 PM 17.4°F-8.1°C 4.8°F-15.1°C 57% 4.0 mph ESE6.4 kmh ESE 11.0 mph17.7 kmh 30.18 in1022.0 mb 0.00 in0.0 mm 0.00 in0.0 mm 0.00 in0.0 mm
06:27 PM 17.4°F-8.1°C 5.2°F-14.9°C 58% 4.0 mph SE6.4 kmh SE 10.1 mph16.3 kmh 30.18 in1022.0 mb 0.00 in0.0 mm 0.00 in0.0 mm 0.00 in0.0 mm
06:32 PM 17.4°F-8.1°C 4.8°F-15.1°C 57% 4.9 mph SSE7.9 kmh SSE 12.1 mph19.5 kmh 30.18 in1022.0 mb 0.00 in0.0 mm 0.00 in0.0 mm 0.00 in0.0 mm
06:37 PM 17.4°F-8.1°C 5.2°F-14.9°C 58% 4.9 mph SE7.9 kmh SE 12.1 mph19.5 kmh 30.17 in1021.7 mb 0.00 in0.0 mm 0.00 in0.0 mm 0.00 in0.0 mm
06:42 PM 17.2°F-8.2°C 5.0°F-15.0°C 58% 4.9 mph S7.9 kmh S 15.0 mph24.1 kmh 30.17 in1021.7 mb 0.00 in0.0 mm 0.00 in0.0 mm 0.00 in0.0 mm
06:47 PM 17.2°F-8.2°C 4.6°F-15.2°C 57% 4.9 mph SE7.9 kmh SE 8.9 mph14.3 kmh 30.17 in1021.7 mb 0.00 in0.0 mm 0.00 in0.0 mm 0.00 in0.0 mm
06:52 PM 17.2°F-8.2°C 4.6°F-15.2°C 57% 4.9 mph SSE7.9 kmh SSE 13.0 mph20.9 kmh 30.17 in1021.7 mb 0.00 in0.0 mm 0.00 in0.0 mm 0.00 in0.0 mm
06:57 PM 17.1°F-8.3°C 4.5°F-15.3°C 57% 4.9 mph SE7.9 kmh SE 11.0 mph17.7 kmh 30.17 in1021.7 mb 0.00 in0.0 mm 0.00 in0.0 mm 0.00 in0.0 mm
07:02 PM 17.1°F-8.3°C 4.5°F-15.3°C 57% 4.0 mph SSE6.4 kmh SSE 10.1 mph16.3 kmh 30.17 in1021.7 mb 0.00 in0.0 mm 0.00 in0.0 mm 0.00 in0.0 mm
07:07 PM 17.1°F-8.3°C 4.8°F-15.1°C 58% 4.0 mph S6.4 kmh S 8.1 mph13.0 kmh 30.16 in1021.3 mb 0.00 in0.0 mm 0.00 in0.0 mm 0.00 in0.0 mm
07:12 PM 17.1°F-8.3°C 4.5°F-15.3°C 57% 4.9 mph SW7.9 kmh SW 13.0 mph20.9 kmh 30.16 in1021.3 mb 0.00 in0.0 mm 0.00 in0.0 mm 0.00 in0.0 mm
07:17 PM 17.1°F-8.3°C 4.8°F-15.1°C 58% 4.9 mph SE7.9 kmh SE 8.9 mph14.3 kmh 30.17 in1021.7 mb 0.00 in0.0 mm 0.00 in0.0 mm 0.00 in0.0 mm
07:22 PM 17.1°F-8.3°C 4.8°F-15.1°C 58% 4.0 mph S6.4 kmh S 8.1 mph13.0 kmh 30.16 in1021.3 mb 0.00 in0.0 mm 0.00 in0.0 mm 0.00 in0.0 mm
07:27 PM 17.1°F-8.3°C 4.8°F-15.1°C 58% 4.0 mph SSE6.4 kmh SSE 8.9 mph14.3 kmh 30.16 in1021.3 mb 0.00 in0.0 mm 0.00 in0.0 mm 0.00 in0.0 mm
07:32 PM 17.1°F-8.3°C 4.8°F-15.1°C 58% 4.0 mph S6.4 kmh S 8.9 mph14.3 kmh 30.16 in1021.3 mb 0.00 in0.0 mm 0.00 in0.0 mm 0.00 in0.0 mm
07:37 PM 17.2°F-8.2°C 5.0°F-15.0°C 58% 4.9 mph SW7.9 kmh SW 12.1 mph19.5 kmh 30.15 in1021.0 mb 0.00 in0.0 mm 0.00 in0.0 mm 0.00 in0.0 mm
07:42 PM 17.2°F-8.2°C 5.0°F-15.0°C 58% 4.9 mph S7.9 kmh S 10.1 mph16.3 kmh 30.15 in1021.0 mb 0.00 in0.0 mm 0.00 in0.0 mm 0.00 in0.0 mm
07:47 PM 17.2°F-8.2°C 4.6°F-15.2°C 57% 6.0 mph SSW9.7 kmh SSW 16.1 mph25.9 kmh 30.14 in1020.7 mb 0.00 in0.0 mm 0.00 in0.0 mm 0.00 in0.0 mm
07:52 PM 17.2°F-8.2°C 5.0°F-15.0°C 58% 6.0 mph SSE9.7 kmh SSE 11.0 mph17.7 kmh 30.14 in1020.7 mb 0.00 in0.0 mm 0.00 in0.0 mm 0.00 in0.0 mm
07:57 PM 17.2°F-8.2°C 5.0°F-15.0°C 58% 6.0 mph SE9.7 kmh SE 13.0 mph20.9 kmh 30.14 in1020.7 mb 0.00 in0.0 mm 0.00 in0.0 mm 0.00 in0.0 mm
08:02 PM 17.2°F-8.2°C 5.0°F-15.0°C 58% 6.0 mph SSE9.7 kmh SSE 8.9 mph14.3 kmh 30.13 in1020.3 mb 0.00 in0.0 mm 0.00 in0.0 mm 0.00 in0.0 mm
08:07 PM 17.1°F-8.3°C 4.8°F-15.1°C 58% 6.0 mph S9.7 kmh S 10.1 mph16.3 kmh 30.13 in1020.3 mb 0.00 in0.0 mm 0.00 in0.0 mm 0.00 in0.0 mm
08:12 PM 17.1°F-8.3°C 4.8°F-15.1°C 58% 6.0 mph SSW9.7 kmh SSW 12.1 mph19.5 kmh 30.13 in1020.3 mb 0.00 in0.0 mm 0.00 in0.0 mm 0.00 in0.0 mm
08:17 PM 17.1°F-8.3°C 4.8°F-15.1°C 58% 6.0 mph SSE9.7 kmh SSE 14.1 mph22.7 kmh 30.13 in1020.3 mb 0.00 in0.0 mm 0.00 in0.0 mm 0.00 in0.0 mm
08:22 PM 16.9°F-8.4°C 5.0°F-15.0°C 59% 4.9 mph SE7.9 kmh SE 8.9 mph14.3 kmh 30.12 in1020.0 mb 0.00 in0.0 mm 0.00 in0.0 mm 0.00 in0.0 mm
08:27 PM 16.9°F-8.4°C 5.0°F-15.0°C 59% 4.9 mph S7.9 kmh S 10.1 mph16.3 kmh 30.12 in1020.0 mb 0.00 in0.0 mm 0.00 in0.0 mm 0.00 in0.0 mm
08:32 PM 16.9°F-8.4°C 5.0°F-15.0°C 59% 4.9 mph SE7.9 kmh SE 10.1 mph16.3 kmh 30.12 in1020.0 mb 0.00 in0.0 mm 0.00 in0.0 mm 0.00 in0.0 mm
08:37 PM 16.7°F-8.5°C 5.2°F-14.9°C 60% 4.0 mph ESE6.4 kmh ESE 11.0 mph17.7 kmh 30.12 in1020.0 mb 0.00 in0.0 mm 0.00 in0.0 mm 0.00 in0.0 mm
08:42 PM 16.7°F-8.5°C 5.2°F-14.9°C 60% 4.0 mph SE6.4 kmh SE 11.0 mph17.7 kmh 30.12 in1020.0 mb 0.00 in0.0 mm 0.00 in0.0 mm 0.00 in0.0 mm
08:47 PM 16.7°F-8.5°C 5.2°F-14.9°C 60% 4.9 mph S7.9 kmh S 11.0 mph17.7 kmh 30.12 in1020.0 mb 0.00 in0.0 mm 0.00 in0.0 mm 0.00 in0.0 mm
08:52 PM 16.7°F-8.5°C 5.5°F-14.7°C 61% 4.0 mph S6.4 kmh S 12.0 mph19.3 kmh 30.12 in1020.0 mb 0.00 in0.0 mm 0.00 in0.0 mm 0.00 in0.0 mm
08:57 PM 16.7°F-8.5°C 5.5°F-14.7°C 61% 4.9 mph SSE7.9 kmh SSE 10.1 mph16.3 kmh 30.12 in1020.0 mb 0.00 in0.0 mm 0.00 in0.0 mm 0.00 in0.0 mm
09:02 PM 16.7°F-8.5°C 5.5°F-14.7°C 61% 4.9 mph S7.9 kmh S 12.1 mph19.5 kmh 30.12 in1020.0 mb 0.00 in0.0 mm 0.00 in0.0 mm 0.00 in0.0 mm
09:07 PM 16.7°F-8.5°C 5.9°F-14.5°C 62% 2.9 mph SW4.7 kmh SW 6.0 mph9.7 kmh 30.12 in1020.0 mb 0.00 in0.0 mm 0.00 in0.0 mm 0.00 in0.0 mm
09:12 PM 16.7°F-8.5°C 5.9°F-14.5°C 62% 2.9 mph S4.7 kmh S 11.0 mph17.7 kmh 30.12 in1020.0 mb 0.00 in0.0 mm 0.00 in0.0 mm 0.00 in0.0 mm
09:17 PM 16.9°F-8.4°C 6.1°F-14.4°C 62% 4.9 mph S7.9 kmh S 11.0 mph17.7 kmh 30.13 in1020.3 mb 0.00 in0.0 mm 0.00 in0.0 mm 0.00 in0.0 mm
09:22 PM 16.9°F-8.4°C 6.1°F-14.4°C 62% 4.9 mph SE7.9 kmh SE 8.9 mph14.3 kmh 30.13 in1020.3 mb 0.00 in0.0 mm 0.00 in0.0 mm 0.00 in0.0 mm
09:27 PM 16.9°F-8.4°C 6.4°F-14.2°C 63% 2.9 mph SSE4.7 kmh SSE 12.1 mph19.5 kmh 30.12 in1020.0 mb 0.00 in0.0 mm 0.00 in0.0 mm 0.00 in0.0 mm
09:32 PM 16.7°F-8.5°C 6.3°F-14.3°C 63% 2.9 mph S4.7 kmh S 8.9 mph14.3 kmh 30.12 in1020.0 mb 0.00 in0.0 mm 0.00 in0.0 mm 0.00 in0.0 mm
09:37 PM 16.7°F-8.5°C 6.6°F-14.1°C 64% 2.9 mph SSE4.7 kmh SSE 6.9 mph11.1 kmh 30.12 in1020.0 mb 0.00 in0.0 mm 0.00 in0.0 mm 0.00 in0.0 mm
09:42 PM 16.7°F-8.5°C 6.6°F-14.1°C 64% 2.0 mph ESE3.2 kmh ESE 8.1 mph13.0 kmh 30.12 in1020.0 mb 0.00 in0.0 mm 0.00 in0.0 mm 0.00 in0.0 mm
09:47 PM 16.7°F-8.5°C 7.0°F-13.9°C 65% 2.0 mph S3.2 kmh S 8.1 mph13.0 kmh 30.12 in1020.0 mb 0.00 in0.0 mm 0.00 in0.0 mm 0.00 in0.0 mm
09:52 PM 16.7°F-8.5°C 7.0°F-13.9°C 65% 2.0 mph S3.2 kmh S 11.0 mph17.7 kmh 30.11 in1019.6 mb 0.00 in0.0 mm 0.00 in0.0 mm 0.00 in0.0 mm
09:57 PM 16.9°F-8.4°C 7.2°F-13.8°C 65% 2.9 mph SE4.7 kmh SE 8.1 mph13.0 kmh 30.12 in1020.0 mb 0.00 in0.0 mm 0.00 in0.0 mm 0.00 in0.0 mm
10:02 PM 17.1°F-8.3°C 7.3°F-13.7°C 65% 2.0 mph SSW3.2 kmh SSW 6.0 mph9.7 kmh 30.12 in1020.0 mb 0.00 in0.0 mm 0.00 in0.0 mm 0.00 in0.0 mm
10:07 PM 17.1°F-8.3°C 7.7°F-13.5°C 66% 2.0 mph SSE3.2 kmh SSE 7.0 mph11.3 kmh 30.12 in1020.0 mb 0.00 in0.0 mm 0.00 in0.0 mm 0.00 in0.0 mm
10:12 PM 17.2°F-8.2°C 7.9°F-13.4°C 66% 2.9 mph S4.7 kmh S 8.9 mph14.3 kmh 30.12 in1020.0 mb 0.00 in0.0 mm 0.00 in0.0 mm 0.00 in0.0 mm
10:17 PM 17.2°F-8.2°C 7.9°F-13.4°C 66% 4.0 mph SSE6.4 kmh SSE 8.1 mph13.0 kmh 30.12 in1020.0 mb 0.00 in0.0 mm 0.00 in0.0 mm 0.00 in0.0 mm
10:22 PM 17.4°F-8.1°C 8.1°F-13.3°C 66% 2.0 mph S3.2 kmh S 6.0 mph9.7 kmh 30.11 in1019.6 mb 0.00 in0.0 mm 0.00 in0.0 mm 0.00 in0.0 mm
10:27 PM 17.4°F-8.1°C 8.1°F-13.3°C 66% 2.9 mph SSW4.7 kmh SSW 10.1 mph16.3 kmh 30.12 in1020.0 mb 0.00 in0.0 mm 0.00 in0.0 mm 0.00 in0.0 mm
10:32 PM 17.4°F-8.1°C 8.1°F-13.3°C 66% 2.9 mph SSE4.7 kmh SSE 8.1 mph13.0 kmh 30.11 in1019.6 mb 0.00 in0.0 mm 0.00 in0.0 mm 0.00 in0.0 mm
10:37 PM 17.2°F-8.2°C 8.2°F-13.2°C 67% 2.9 mph SSE4.7 kmh SSE 6.0 mph9.7 kmh 30.11 in1019.6 mb 0.00 in0.0 mm 0.00 in0.0 mm 0.00 in0.0 mm
10:42 PM 17.2°F-8.2°C 8.2°F-13.2°C 67% 2.9 mph SSW4.7 kmh SSW 8.9 mph14.3 kmh 30.11 in1019.6 mb 0.00 in0.0 mm 0.00 in0.0 mm 0.00 in0.0 mm
10:47 PM 17.2°F-8.2°C 8.4°F-13.1°C 68% 2.9 mph S4.7 kmh S 8.9 mph14.3 kmh 30.10 in1019.3 mb 0.00 in0.0 mm 0.00 in0.0 mm 0.00 in0.0 mm
10:52 PM 17.2°F-8.2°C 8.4°F-13.1°C 68% 2.0 mph SSW3.2 kmh SSW 8.9 mph14.3 kmh 30.10 in1019.3 mb 0.00 in0.0 mm 0.00 in0.0 mm 0.00 in0.0 mm
10:57 PM 17.4°F-8.1°C 8.6°F-13.0°C 68% 2.0 mph SSE3.2 kmh SSE 8.9 mph14.3 kmh 30.10 in1019.3 mb 0.00 in0.0 mm 0.00 in0.0 mm 0.00 in0.0 mm
11:02 PM 17.4°F-8.1°C 8.6°F-13.0°C 68% 2.9 mph SSE4.7 kmh SSE 8.9 mph14.3 kmh 30.10 in1019.3 mb 0.00 in0.0 mm 0.00 in0.0 mm 0.00 in0.0 mm
11:07 PM 17.6°F-8.0°C 8.8°F-12.9°C 68% 2.9 mph SSW4.7 kmh SSW 6.0 mph9.7 kmh 30.10 in1019.3 mb 0.00 in0.0 mm 0.00 in0.0 mm 0.00 in0.0 mm
11:12 PM 17.6°F-8.0°C 8.8°F-12.9°C 68% 2.0 mph S3.2 kmh S 4.9 mph7.9 kmh 30.10 in1019.3 mb 0.00 in0.0 mm 0.00 in0.0 mm 0.00 in0.0 mm
11:17 PM 17.8°F-7.9°C 9.0°F-12.8°C 68% 2.0 mph SSE3.2 kmh SSE 6.0 mph9.7 kmh 30.10 in1019.3 mb 0.00 in0.0 mm 0.00 in0.0 mm 0.00 in0.0 mm
11:23 PM 17.8°F-7.9°C 9.0°F-12.8°C 68% 2.0 mph SSE3.2 kmh SSE 4.9 mph7.9 kmh 30.09 in1019.0 mb 0.00 in0.0 mm 0.00 in0.0 mm 0.00 in0.0 mm
11:28 PM 17.6°F-8.0°C 9.1°F-12.7°C 69% 2.0 mph SSW3.2 kmh SSW 6.9 mph11.1 kmh 30.09 in1019.0 mb 0.00 in0.0 mm 0.00 in0.0 mm 0.00 in0.0 mm
11:33 PM 17.8°F-7.9°C 9.3°F-12.6°C 69% 2.0 mph S3.2 kmh S 6.0 mph9.7 kmh 30.08 in1018.6 mb 0.00 in0.0 mm 0.00 in0.0 mm 0.00 in0.0 mm
11:38 PM 17.6°F-8.0°C 9.1°F-12.7°C 69% 2.0 mph SSW3.2 kmh SSW 4.0 mph6.4 kmh 30.08 in1018.6 mb 0.00 in0.0 mm 0.00 in0.0 mm 0.00 in0.0 mm
11:43 PM 17.6°F-8.0°C 9.1°F-12.7°C 69% 0.9 mph S1.4 kmh S 4.0 mph6.4 kmh 30.07 in1018.3 mb 0.00 in0.0 mm 0.00 in0.0 mm 0.00 in0.0 mm
11:48 PM 17.4°F-8.1°C 9.0°F-12.8°C 69% 0.9 mph S1.4 kmh S 8.1 mph13.0 kmh 30.07 in1018.3 mb 0.00 in0.0 mm 0.00 in0.0 mm 0.00 in0.0 mm
11:53 PM 17.6°F-8.0°C 9.5°F-12.5°C 70% 0.9 mph SSW1.4 kmh SSW 4.9 mph7.9 kmh 30.07 in1018.3 mb 0.00 in0.0 mm 0.00 in0.0 mm 0.00 in0.0 mm
11:58 PM 17.4°F-8.1°C 9.3°F-12.6°C 70% 0.9 mph S1.4 kmh S 4.0 mph6.4 kmh 30.07 in1018.3 mb 0.00 in0.0 mm 0.00 in0.0 mm 0.00 in0.0 mm